createdAt,value
2019-05-15T00:02:58.921Z,42.20
2019-05-15T00:08:03.849Z,42.30
2019-05-15T00:13:09.304Z,42.30
2019-05-15T00:18:13.891Z,42.40
2019-05-15T00:23:18.415Z,42.30
2019-05-15T00:28:22.830Z,42.50
2019-05-15T00:33:29.265Z,42.60
2019-05-15T00:38:33.571Z,43.00
2019-05-15T00:49:41.298Z,43.40
2019-05-15T00:54:45.647Z,43.50
2019-05-15T00:59:50.026Z,43.60
2019-05-15T01:04:54.393Z,43.50
2019-05-15T01:09:58.800Z,43.60
2019-05-15T01:15:03.206Z,43.70
2019-05-15T01:20:13.844Z,43.30
2019-05-15T01:25:18.630Z,43.40
2019-05-15T01:30:23.170Z,43.50
2019-05-15T01:35:28.709Z,43.70
2019-05-15T01:40:33.272Z,43.80
2019-05-15T01:51:41.523Z,43.80
2019-05-15T01:56:45.798Z,43.80
2019-05-15T02:01:50.111Z,43.80
2019-05-15T02:06:54.398Z,43.70
2019-05-15T02:11:58.688Z,44.00
2019-05-15T02:17:03.219Z,44.30
2019-05-15T02:22:08.386Z,43.90
2019-05-15T02:27:12.747Z,44.00
2019-05-15T02:32:19.471Z,43.80
2019-05-15T02:37:29.368Z,43.90
2019-05-15T02:42:33.040Z,44.30
2019-05-15T02:47:40.035Z,44.50
2019-05-15T02:52:45.730Z,44.30
2019-05-15T02:57:52.186Z,44.80
2019-05-15T03:03:00.644Z,45.10
2019-05-15T03:08:05.038Z,45.50
2019-05-15T03:13:09.902Z,45.90
2019-05-15T03:18:19.164Z,46.00
2019-05-15T03:23:23.593Z,45.90
2019-05-15T03:28:30.310Z,46.20
2019-05-15T03:33:37.118Z,46.60
2019-05-15T03:38:41.087Z,46.50
2019-05-15T03:49:24.427Z,46.70
2019-05-15T03:54:29.522Z,47.20
2019-05-15T03:59:34.087Z,47.60
2019-05-15T04:04:40.739Z,47.70
2019-05-15T04:09:45.144Z,48.10
2019-05-15T04:14:50.176Z,48.20
2019-05-15T04:19:55.055Z,48.10
2019-05-15T04:24:59.815Z,48.30
2019-05-15T04:30:04.318Z,48.60
2019-05-15T04:35:10.144Z,48.60
2019-05-15T04:40:15.067Z,48.50
2019-05-15T04:45:20.575Z,48.70
2019-05-15T04:50:24.969Z,48.30
2019-05-15T04:55:29.371Z,47.80
2019-05-15T05:00:49.509Z,47.50
2019-05-15T05:05:53.523Z,47.20
2019-05-15T05:10:59.251Z,46.70
2019-05-15T05:16:03.885Z,46.20
2019-05-15T05:21:08.173Z,45.60
2019-05-15T05:26:12.501Z,45.10
2019-05-15T05:31:19.081Z,45.00
2019-05-15T05:36:24.528Z,44.70
2019-05-15T05:41:28.840Z,44.90
2019-05-15T05:46:33.418Z,44.60
2019-05-15T05:51:38.727Z,43.40
2019-05-15T05:56:43.146Z,42.70
2019-05-15T06:01:48.498Z,42.30
2019-05-15T06:07:06.099Z,42.20
2019-05-15T06:11:59.258Z,41.60
2019-05-15T06:17:03.586Z,40.30
2019-05-15T06:22:08.783Z,40.20
2019-05-15T06:27:13.286Z,40.20
2019-05-15T06:32:19.457Z,39.40
2019-05-15T06:37:23.868Z,39.10
2019-05-15T06:42:29.661Z,39.30
2019-05-15T06:47:33.983Z,39.50
2019-05-15T06:52:38.367Z,39.40
2019-05-15T06:57:42.677Z,37.80
2019-05-15T07:02:48.687Z,37.10
2019-05-15T07:07:53.190Z,36.90
2019-05-15T07:12:58.539Z,37.00
2019-05-15T07:18:04.356Z,36.50
2019-05-15T07:23:09.000Z,35.30
2019-05-15T08:07:49.431Z,33.90
2019-05-15T08:12:53.755Z,35.50
2019-05-15T08:18:05.488Z,34.50
2019-05-15T08:40:22.102Z,35.60
2019-05-15T08:51:32.695Z,35.10
2019-05-15T08:56:40.444Z,35.00
2019-05-15T09:01:44.741Z,34.60
2019-05-15T09:06:49.649Z,34.70
2019-05-15T09:11:54.387Z,35.40
2019-05-15T09:16:58.739Z,35.70
2019-05-15T09:38:30.675Z,34.20
2019-05-15T09:43:34.990Z,34.90
2019-05-15T09:48:39.342Z,34.40
2019-05-15T09:53:43.644Z,34.30
2019-05-15T09:58:48.908Z,33.90
2019-05-15T10:03:53.552Z,33.60
2019-05-15T10:08:57.921Z,33.70
2019-05-15T10:14:02.348Z,33.80
2019-05-15T10:19:08.813Z,34.30
2019-05-15T10:24:12.567Z,33.50
2019-05-15T10:29:16.858Z,34.80
2019-05-15T10:34:21.160Z,32.30
2019-05-15T10:39:25.457Z,33.90
2019-05-15T10:44:29.762Z,33.20
2019-05-15T10:49:34.283Z,33.20
2019-05-15T10:54:38.660Z,32.60
2019-05-15T10:59:43.251Z,32.50
2019-05-15T11:04:48.684Z,30.90
2019-05-15T11:09:53.296Z,31.20
2019-05-15T11:14:57.625Z,29.70
2019-05-15T11:20:01.912Z,29.20
2019-05-15T11:25:09.928Z,28.90
2019-05-15T11:30:14.877Z,28.60
2019-05-15T11:35:19.118Z,28.90
2019-05-15T11:40:23.857Z,28.80
2019-05-15T11:45:29.158Z,29.10
2019-05-15T11:50:33.591Z,28.90
2019-05-15T11:55:38.661Z,28.50
2019-05-15T12:00:43.432Z,29.10
2019-05-15T12:05:47.791Z,28.70
2019-05-15T12:10:52.134Z,28.90
2019-05-15T12:15:58.714Z,29.10
2019-05-15T12:21:02.509Z,28.80
2019-05-15T12:26:09.132Z,29.40
2019-05-15T12:31:13.054Z,27.80
2019-05-15T12:36:45.435Z,28.90
2019-05-15T13:01:47.767Z,29.70
2019-05-15T13:07:10.480Z,30.00
2019-05-15T13:11:58.112Z,27.30
2019-05-15T13:17:02.588Z,29.30
2019-05-15T13:22:17.344Z,29.10
2019-05-15T13:27:12.939Z,28.80
2019-05-15T13:32:17.528Z,28.50
2019-05-15T13:37:27.389Z,28.60
2019-05-15T13:42:28.082Z,28.30
2019-05-15T13:47:35.844Z,28.30
2019-05-15T13:52:40.153Z,27.90
2019-05-15T13:57:44.575Z,26.80
2019-05-15T14:02:49.378Z,28.10
2019-05-15T14:07:53.781Z,27.50
2019-05-15T14:12:58.464Z,28.20
2019-05-15T14:18:03.189Z,29.40
2019-05-15T14:23:08.725Z,29.80
2019-05-15T14:28:13.348Z,28.50
2019-05-15T14:33:19.457Z,28.20
2019-05-15T14:38:23.966Z,29.40
2019-05-15T14:43:29.344Z,28.50
2019-05-15T14:48:34.036Z,28.10
2019-05-15T14:53:38.825Z,28.70
2019-05-15T14:58:43.228Z,28.80
2019-05-15T15:03:48.839Z,28.80
2019-05-15T15:08:53.309Z,29.80
2019-05-15T15:13:57.960Z,28.90
2019-05-15T15:19:02.515Z,28.50
2019-05-15T15:24:08.340Z,28.60
2019-05-15T15:29:12.865Z,30.00
2019-05-15T15:34:19.650Z,30.80
2019-05-15T15:39:24.808Z,29.70
2019-05-15T15:44:29.268Z,28.80
2019-05-15T15:49:33.681Z,27.50
2019-05-15T15:54:39.469Z,28.20
2019-05-15T15:59:44.680Z,29.20
2019-05-15T16:04:48.921Z,29.00
2019-05-15T16:09:53.220Z,29.80
2019-05-15T16:14:57.975Z,29.30
2019-05-15T16:20:02.577Z,28.30
2019-05-15T16:25:09.807Z,28.30
2019-05-15T16:30:20.282Z,28.30
2019-05-15T16:35:32.196Z,28.60
2019-05-15T16:40:38.344Z,29.30
2019-05-15T16:45:53.901Z,29.90
2019-05-15T16:51:00.972Z,30.00
2019-05-15T16:56:11.899Z,30.30
2019-05-15T17:01:24.082Z,29.90
2019-05-15T17:06:41.355Z,29.70
2019-05-15T17:11:49.178Z,29.30
2019-05-15T17:16:58.563Z,29.70
2019-05-15T17:22:14.703Z,30.20
2019-05-15T17:27:20.028Z,30.00
2019-05-15T17:32:29.117Z,29.70
2019-05-15T17:37:33.684Z,30.00
2019-05-15T17:42:38.873Z,30.60
2019-05-15T17:47:43.709Z,31.70
2019-05-15T17:52:49.133Z,31.10
2019-05-15T17:57:57.489Z,31.50
2019-05-15T18:02:59.836Z,31.50
2019-05-15T18:08:04.124Z,31.30
2019-05-15T18:13:08.896Z,30.90
2019-05-15T18:18:18.685Z,30.70
2019-05-15T18:23:23.756Z,31.80
2019-05-15T18:28:28.277Z,31.80
2019-05-15T18:33:32.744Z,31.60
2019-05-15T18:38:38.769Z,32.20
2019-05-15T18:43:43.230Z,32.50
2019-05-15T18:48:48.561Z,32.90
2019-05-15T18:53:53.085Z,33.40
2019-05-15T18:58:57.925Z,34.10
2019-05-15T19:04:02.644Z,33.80
2019-05-15T19:09:08.245Z,34.40
2019-05-15T19:14:12.663Z,34.60
2019-05-15T19:19:18.524Z,35.40
2019-05-15T19:24:23.051Z,36.00
2019-05-15T19:29:28.454Z,35.40
2019-05-15T19:34:32.934Z,35.30
2019-05-15T19:39:38.545Z,35.40
2019-05-15T19:44:43.094Z,35.40
2019-05-15T19:49:48.485Z,35.30
2019-05-15T19:54:52.832Z,35.10
2019-05-15T19:59:58.118Z,35.30
2019-05-15T20:05:02.916Z,35.20
2019-05-15T20:10:08.587Z,34.50
2019-05-15T20:15:13.901Z,34.30
2019-05-15T20:20:18.926Z,34.30
2019-05-15T20:25:23.712Z,34.60
2019-05-15T20:30:28.706Z,34.50
2019-05-15T20:35:33.209Z,34.80
2019-05-15T20:40:37.656Z,35.00
2019-05-15T20:45:41.994Z,35.20
2019-05-15T20:50:48.248Z,35.10
2019-05-15T20:55:52.555Z,35.10
2019-05-15T21:00:59.217Z,35.30
2019-05-15T21:06:02.969Z,35.40
2019-05-15T21:11:11.600Z,35.60
2019-05-15T21:16:13.438Z,35.80
2019-05-15T21:21:19.285Z,36.10
2019-05-15T21:26:23.766Z,36.00
2019-05-15T21:31:28.331Z,35.90
2019-05-15T21:36:32.647Z,36.00
2019-05-15T21:41:38.769Z,36.20
2019-05-15T21:46:43.156Z,36.40
2019-05-15T21:51:47.895Z,36.50
2019-05-15T21:57:05.453Z,36.70
2019-05-15T22:01:59.022Z,36.80
2019-05-15T22:07:03.492Z,37.10
2019-05-15T22:12:07.880Z,37.30
2019-05-15T22:17:12.327Z,37.50
2019-05-15T22:22:17.966Z,37.30
2019-05-15T22:27:22.446Z,36.70
2019-05-15T22:32:28.803Z,36.50
2019-05-15T22:37:32.799Z,36.60
2019-05-15T22:42:39.102Z,36.70
2019-05-15T22:47:43.139Z,36.70
2019-05-15T22:52:49.184Z,36.50
2019-05-15T22:57:53.471Z,36.00
2019-05-15T23:02:58.099Z,35.40
2019-05-15T23:08:02.604Z,35.10
2019-05-15T23:13:07.309Z,34.80
2019-05-15T23:18:11.670Z,34.70
2019-05-15T23:23:18.011Z,34.60
2019-05-15T23:28:21.996Z,34.10
2019-05-15T23:33:28.240Z,33.90
2019-05-15T23:38:35.551Z,34.80
2019-05-15T23:43:39.854Z,34.00
2019-05-15T23:48:44.149Z,33.80
2019-05-15T23:53:48.616Z,34.00
2019-05-15T23:58:53.003Z,33.90
